Pagrindinis puslapis
METAR-TAF:

METAR-TAF

Oro uostai :

Fodža, Italija

platuma: 41-25-58N, ilguma: 015-32-06E, Aukštis: 81 m

Dabartinis oras

Ataskaita buvo paskelbta 12 valandos ir 39 minutes, ne 14:50 UTC
Vėjas 8 kt iš Šiaurės/Šiaurės Vakarų
Temperatūra 12°C
Drėgmė 58%
Slėgis 1024 hPa
Matomumas 10 km arba daugiau
nėra debesų žemiau 1500 m ir nėra kamuolinių lietaus debesų

METAR: LIBF 171450Z 34008KT CAVOK 12/04 Q1024

Laikas: 04:29 (03:29 UTC)


TAF: trūkstamas

Orai ataskaitas ir orų prognozės (METAR, TAF).

turimą stotys yra geltonos ir raudonos taškus žemėlapyje.

Perkelti pele per norėdami pamatyti stoties vardą.

Tada spustelėkite, norėdami matyti oro stebėjimo ir prognozės.

Norėdami pakeisti žemėlapį: spustelėkite ant žalios mygtukų su juodo kryžiaus žemyn,; žalią mygtuką su brūkšneliu, jei norite nutolinti; arba žalių rodyklių gretimoms žemėlapius.


METAR-TAF: